Portada
Imágenes satélite Pronóstico 15 díasClimaPredicción Marítima Ciclones Rayo AeropuertosFAQ Noticias Acerca
El tiempo : Europa África América del Norte América del Sur Asia Australia-Oceanía Otros
Idiomas Contacto

Valencia, España

latitud: 39-30N, longitud: 000-28W, altitud: 69 m


METAR: LEVC 202030Z VRB02KT 9000 NSC 20/16 Q1020 NOSIG
TAF: LEVC 201700Z 2018/2118 27006KT CAVOK TX32/2113Z TN13/2106Z TEMPO 2111/2116 12008KT

Hora: 23:08 (21:08 UTC)

Observación

El informe se hizo hace 38 minutos, a las 20:30 UTC  
Viento 02 kt con dirección variable
Temperatura 20°C
Humedad 78%
Presión 1020 hPa
Visibilidad 9000 m

Cambiar las unidades

Pronóstico

El informe se hizo hace 04 horas y 08 minutos, a las 17:00 UTC  
Pronóstico válido del 20 a las 18 UTC al 21 a las 18 UTC
Viento 06 kt del oeste
Visibilidad 10 km o más
sin nubes por debajo de 1500 m y sin presencia de cumulonimbus.
Temporalmente
del 21 a las 11 UTC al 21 a las 16 UTC
Viento 08 kt del este-sureste
La información que se ofrece en estas páginas está sujeta a una cláusula de exención de responsabilidad
El tiempo : Europa África América del Norte América del Sur Asia Australia-Oceanía Otros
Imágenes satélite Pronóstico 15 díasClimaPredicción Marítima Ciclones Rayo AeropuertosFAQ Idiomas Contacto Noticias Acerca